createdAt,value
2018-12-27T00:00:42.602Z,0
2018-12-27T00:01:42.657Z,0
2018-12-27T00:02:42.578Z,0
2018-12-27T00:03:42.571Z,0
2018-12-27T00:04:42.557Z,0
2018-12-27T00:05:42.551Z,0
2018-12-27T00:06:42.542Z,0
2018-12-27T00:07:42.524Z,0
2018-12-27T00:08:42.522Z,0
2018-12-27T00:09:42.506Z,0
2018-12-27T00:10:42.489Z,0
2018-12-27T00:11:42.479Z,0
2018-12-27T00:12:42.475Z,0
2018-12-27T00:13:42.460Z,0
2018-12-27T00:14:42.443Z,0
2018-12-27T00:15:42.430Z,0
2018-12-27T00:16:42.429Z,0
2018-12-27T00:17:42.434Z,0
2018-12-27T00:18:42.399Z,0
2018-12-27T00:19:42.389Z,0
2018-12-27T00:20:42.375Z,0
2018-12-27T00:21:42.366Z,0
2018-12-27T00:22:42.353Z,0
2018-12-27T00:23:42.344Z,0
2018-12-27T00:24:42.539Z,0
2018-12-27T00:25:42.315Z,0
2018-12-27T00:26:42.310Z,0
2018-12-27T00:27:42.296Z,0
2018-12-27T00:28:42.281Z,0
2018-12-27T00:29:42.276Z,0
2018-12-27T00:30:42.265Z,0
2018-12-27T00:31:42.254Z,0
2018-12-27T00:32:42.246Z,0
2018-12-27T00:33:42.230Z,0
2018-12-27T00:34:42.218Z,0
2018-12-27T00:35:42.203Z,0
2018-12-27T00:36:42.193Z,0
2018-12-27T00:37:42.214Z,0
2018-12-27T00:38:42.172Z,0
2018-12-27T00:39:42.408Z,0
2018-12-27T00:40:42.150Z,0
2018-12-27T00:41:42.141Z,0
2018-12-27T00:42:42.124Z,0
2018-12-27T00:43:42.115Z,0
2018-12-27T00:44:42.105Z,0
2018-12-27T00:45:42.091Z,0
2018-12-27T00:46:42.083Z,0
2018-12-27T00:47:42.067Z,0
2018-12-27T00:48:42.054Z,0
2018-12-27T00:49:42.047Z,0
2018-12-27T00:50:42.036Z,0
2018-12-27T00:51:42.021Z,0
2018-12-27T00:52:42.010Z,0
2018-12-27T00:53:42.085Z,0
2018-12-27T00:54:41.984Z,0
2018-12-27T00:55:41.973Z,0
2018-12-27T00:56:41.962Z,0
2018-12-27T00:57:41.956Z,0
2018-12-27T00:58:41.942Z,0
2018-12-27T00:59:41.931Z,0
2018-12-27T01:00:41.926Z,0
2018-12-27T01:01:41.911Z,0
2018-12-27T01:02:41.898Z,0
2018-12-27T01:03:41.889Z,0
2018-12-27T01:04:41.872Z,0
2018-12-27T01:05:41.859Z,0
2018-12-27T01:06:41.846Z,0
2018-12-27T01:07:41.834Z,0
2018-12-27T01:08:41.824Z,0
2018-12-27T01:09:41.810Z,0
2018-12-27T01:10:41.800Z,0
2018-12-27T01:11:41.795Z,0
2018-12-27T01:12:41.780Z,0
2018-12-27T01:13:41.769Z,0
2018-12-27T01:14:41.763Z,0
2018-12-27T01:15:41.809Z,0
2018-12-27T01:16:41.744Z,0
2018-12-27T01:17:41.721Z,0
2018-12-27T01:18:41.710Z,0
2018-12-27T01:19:41.700Z,0
2018-12-27T01:20:41.688Z,0
2018-12-27T01:21:41.677Z,0
2018-12-27T01:22:41.662Z,0
2018-12-27T01:23:41.654Z,0
2018-12-27T01:24:41.640Z,0
2018-12-27T01:25:41.638Z,0
2018-12-27T01:26:41.615Z,0
2018-12-27T01:27:41.607Z,0
2018-12-27T01:28:41.597Z,0
2018-12-27T01:29:41.580Z,0
2018-12-27T01:30:41.587Z,0
2018-12-27T01:31:41.560Z,0
2018-12-27T01:32:41.548Z,0
2018-12-27T01:33:41.539Z,0
2018-12-27T01:34:41.533Z,0
2018-12-27T01:35:41.518Z,0
2018-12-27T01:36:41.503Z,0
2018-12-27T01:37:41.506Z,0
2018-12-27T01:38:41.481Z,0
2018-12-27T01:39:41.471Z,0
2018-12-27T01:40:41.457Z,0
2018-12-27T01:41:41.453Z,0
2018-12-27T01:42:41.431Z,0
2018-12-27T01:43:41.430Z,0
2018-12-27T01:44:41.410Z,0
2018-12-27T01:45:41.397Z,0
2018-12-27T01:46:41.432Z,0
2018-12-27T01:47:41.381Z,0
2018-12-27T01:48:41.367Z,0
2018-12-27T01:49:41.113Z,0
2018-12-27T01:50:41.344Z,0
2018-12-27T01:51:41.333Z,0
2018-12-27T01:52:41.319Z,0
2018-12-27T01:53:41.308Z,0
2018-12-27T01:54:41.296Z,0
2018-12-27T01:55:41.285Z,0
2018-12-27T01:56:41.271Z,0
2018-12-27T01:57:41.263Z,0
2018-12-27T01:58:41.254Z,0
2018-12-27T01:59:41.243Z,0
2018-12-27T02:00:41.229Z,0
2018-12-27T02:01:41.224Z,0
2018-12-27T02:02:41.204Z,0
2018-12-27T02:03:41.194Z,0
2018-12-27T02:04:41.182Z,0
2018-12-27T02:05:41.170Z,0
2018-12-27T02:06:41.164Z,0
2018-12-27T02:07:41.157Z,0
2018-12-27T02:08:40.894Z,0
2018-12-27T02:09:41.128Z,0
2018-12-27T02:10:41.114Z,0
2018-12-27T02:11:41.103Z,0
2018-12-27T02:12:41.091Z,0
2018-12-27T02:13:41.081Z,0
2018-12-27T02:14:41.071Z,0
2018-12-27T02:15:41.058Z,0
2018-12-27T02:16:41.044Z,0
2018-12-27T02:17:41.040Z,0
2018-12-27T02:18:41.066Z,0
2018-12-27T02:19:41.013Z,0
2018-12-27T02:20:41.004Z,0
2018-12-27T02:21:40.990Z,0
2018-12-27T02:22:40.981Z,0
2018-12-27T02:23:40.973Z,0
2018-12-27T02:24:40.954Z,0
2018-12-27T02:25:40.943Z,0
2018-12-27T02:26:40.935Z,0
2018-12-27T02:27:40.921Z,0
2018-12-27T02:28:40.910Z,0
2018-12-27T02:29:40.899Z,0
2018-12-27T02:30:40.659Z,0
2018-12-27T02:31:42.022Z,0
2018-12-27T02:32:40.885Z,0
2018-12-27T02:33:42.678Z,0
2018-12-27T02:34:40.849Z,0
2018-12-27T02:35:40.836Z,0
2018-12-27T02:36:40.829Z,0
2018-12-27T02:37:40.815Z,0
2018-12-27T02:38:40.796Z,0
2018-12-27T02:39:42.607Z,0
2018-12-27T02:40:40.779Z,0
2018-12-27T02:41:40.765Z,0
2018-12-27T02:42:40.778Z,0
2018-12-27T02:43:40.742Z,0
2018-12-27T02:44:40.726Z,0
2018-12-27T02:45:40.722Z,0
2018-12-27T02:46:40.721Z,0
2018-12-27T02:47:40.699Z,0
2018-12-27T02:48:40.681Z,0
2018-12-27T02:49:40.676Z,0
2018-12-27T02:50:40.659Z,0
2018-12-27T02:51:40.657Z,0
2018-12-27T02:52:40.636Z,0
2018-12-27T02:53:40.626Z,0
2018-12-27T02:54:40.622Z,0
2018-12-27T02:55:40.607Z,0
2018-12-27T02:56:40.597Z,0
2018-12-27T02:57:40.579Z,0
2018-12-27T02:58:40.569Z,0
2018-12-27T02:59:40.556Z,0
2018-12-27T03:00:40.548Z,0
2018-12-27T03:01:40.566Z,0
2018-12-27T03:02:40.527Z,0
2018-12-27T03:03:48.512Z,0
2018-12-27T03:04:40.502Z,0
2018-12-27T03:05:40.563Z,0
2018-12-27T03:06:40.484Z,0
2018-12-27T03:07:40.468Z,0
2018-12-27T03:08:40.466Z,0
2018-12-27T03:09:40.454Z,0
2018-12-27T03:10:40.433Z,0
2018-12-27T03:11:40.419Z,0
2018-12-27T03:12:40.412Z,0
2018-12-27T03:13:40.399Z,0
2018-12-27T03:14:40.388Z,0
2018-12-27T03:15:40.374Z,0
2018-12-27T03:16:40.361Z,0
2018-12-27T03:17:40.347Z,0
2018-12-27T03:18:40.398Z,0
2018-12-27T03:19:40.336Z,0
2018-12-27T03:20:40.319Z,0
2018-12-27T03:21:40.379Z,0
2018-12-27T03:22:40.381Z,0
2018-12-27T03:23:40.283Z,0
2018-12-27T03:24:40.273Z,0
2018-12-27T03:25:40.266Z,0
2018-12-27T03:26:40.259Z,0
2018-12-27T03:27:40.236Z,0
2018-12-27T03:28:40.224Z,0
2018-12-27T03:29:40.220Z,0
2018-12-27T03:30:40.373Z,0
2018-12-27T03:31:40.224Z,0
2018-12-27T03:32:40.314Z,0
2018-12-27T03:33:40.168Z,0
2018-12-27T03:34:40.156Z,0
2018-12-27T03:35:40.145Z,0
2018-12-27T03:36:40.129Z,0
2018-12-27T03:37:40.124Z,0
2018-12-27T03:38:40.106Z,0
2018-12-27T03:39:40.095Z,0
2018-12-27T03:40:40.086Z,0
2018-12-27T03:41:40.071Z,0
2018-12-27T03:42:40.060Z,0
2018-12-27T03:43:39.803Z,0
2018-12-27T03:44:40.041Z,0
2018-12-27T03:45:40.024Z,0
2018-12-27T03:46:40.024Z,0
2018-12-27T03:47:40.011Z,0
2018-12-27T03:48:39.994Z,0
2018-12-27T03:49:39.977Z,0
2018-12-27T03:50:39.967Z,0
2018-12-27T03:51:39.966Z,0
2018-12-27T03:52:39.954Z,0
2018-12-27T03:53:39.937Z,0
2018-12-27T03:54:39.926Z,0
2018-12-27T03:55:39.919Z,0
2018-12-27T03:56:39.896Z,0
2018-12-27T03:57:39.889Z,0
2018-12-27T03:58:39.872Z,0
2018-12-27T03:59:39.873Z,0
2018-12-27T04:00:39.871Z,0
2018-12-27T04:01:39.834Z,0
2018-12-27T04:02:39.826Z,0
2018-12-27T04:03:39.818Z,0
2018-12-27T04:04:39.814Z,0
2018-12-27T04:05:39.795Z,0
2018-12-27T04:06:39.783Z,0
2018-12-27T04:07:39.841Z,0
2018-12-27T04:08:39.760Z,0
2018-12-27T04:09:39.753Z,0
2018-12-27T04:10:39.737Z,0
2018-12-27T04:11:39.742Z,0
2018-12-27T04:12:39.720Z,0
2018-12-27T04:13:39.698Z,0
2018-12-27T04:14:39.699Z,0
2018-12-27T04:15:39.679Z,0
2018-12-27T04:16:39.665Z,0
2018-12-27T04:17:39.659Z,0
2018-12-27T04:18:39.653Z,0
2018-12-27T04:19:39.637Z,0
2018-12-27T04:20:39.633Z,0
2018-12-27T04:21:39.608Z,0
2018-12-27T04:22:39.381Z,0
2018-12-27T04:23:39.612Z,0
2018-12-27T04:24:39.570Z,0
2018-12-27T04:25:39.557Z,0
2018-12-27T04:26:39.591Z,0
2018-12-27T04:27:39.541Z,0
2018-12-27T04:28:39.525Z,0
2018-12-27T04:29:39.522Z,0
2018-12-27T04:30:39.510Z,0
2018-12-27T04:31:39.486Z,0
2018-12-27T04:32:39.490Z,0
2018-12-27T04:33:39.469Z,0
2018-12-27T04:34:39.457Z,0
2018-12-27T04:35:39.445Z,0
2018-12-27T04:36:39.439Z,0
2018-12-27T04:37:39.417Z,0
2018-12-27T04:38:39.415Z,0
2018-12-27T04:39:39.398Z,0
2018-12-27T04:40:39.384Z,0
2018-12-27T04:41:39.382Z,0
2018-12-27T04:42:39.374Z,0
2018-12-27T04:43:39.355Z,0
2018-12-27T04:44:39.338Z,0
2018-12-27T04:45:39.327Z,0
2018-12-27T04:46:39.319Z,0
2018-12-27T04:47:39.314Z,0
2018-12-27T04:48:39.313Z,0
2018-12-27T04:49:39.279Z,0
2018-12-27T04:50:39.272Z,0
2018-12-27T04:51:39.262Z,0
2018-12-27T04:52:39.250Z,0
2018-12-27T04:53:39.240Z,0
2018-12-27T04:54:39.219Z,0
2018-12-27T04:55:39.217Z,0
2018-12-27T04:56:39.195Z,0
2018-12-27T04:57:39.197Z,0
2018-12-27T04:58:39.177Z,0
2018-12-27T04:59:39.167Z,0
2018-12-27T05:00:39.176Z,0
2018-12-27T05:01:39.150Z,0
2018-12-27T05:02:39.165Z,0
2018-12-27T05:03:39.126Z,0
2018-12-27T05:04:39.109Z,0
2018-12-27T05:05:39.099Z,0
2018-12-27T05:06:39.085Z,0
2018-12-27T05:07:38.847Z,0
2018-12-27T05:08:39.077Z,0
2018-12-27T05:09:39.067Z,0
2018-12-27T05:10:39.045Z,0
2018-12-27T05:11:39.029Z,0
2018-12-27T05:12:39.012Z,0
2018-12-27T05:13:39.012Z,0
2018-12-27T05:14:38.995Z,0
2018-12-27T05:15:38.991Z,0
2018-12-27T05:16:38.967Z,0
2018-12-27T05:17:38.712Z,0
2018-12-27T05:18:38.946Z,0
2018-12-27T05:19:38.931Z,0
2018-12-27T05:20:38.924Z,0
2018-12-27T05:21:38.915Z,0
2018-12-27T05:22:38.896Z,0
2018-12-27T05:23:38.884Z,0
2018-12-27T05:24:38.870Z,0
2018-12-27T05:25:38.864Z,0
2018-12-27T05:26:38.869Z,0
2018-12-27T05:27:38.836Z,0
2018-12-27T05:28:38.829Z,0
2018-12-27T05:29:38.811Z,0
2018-12-27T05:30:38.798Z,0
2018-12-27T05:31:38.786Z,0
2018-12-27T05:32:38.791Z,0
2018-12-27T05:33:38.782Z,0
2018-12-27T05:34:38.755Z,0
2018-12-27T05:35:38.742Z,0
2018-12-27T05:36:38.728Z,0
2018-12-27T05:37:38.719Z,0
2018-12-27T05:38:38.712Z,0
2018-12-27T05:39:38.700Z,0
2018-12-27T05:40:38.684Z,0
2018-12-27T05:41:38.678Z,0
2018-12-27T05:42:38.665Z,0
2018-12-27T05:43:38.657Z,0
2018-12-27T05:44:38.639Z,0
2018-12-27T05:45:38.637Z,0
2018-12-27T05:46:38.616Z,0
2018-12-27T05:47:38.620Z,0
2018-12-27T05:48:38.591Z,0
2018-12-27T05:49:38.881Z,0
2018-12-27T05:50:38.570Z,0
2018-12-27T05:51:38.555Z,0
2018-12-27T05:52:38.548Z,0
2018-12-27T05:53:38.528Z,0
2018-12-27T05:54:38.517Z,0
2018-12-27T05:55:41.696Z,0
2018-12-27T05:56:38.498Z,0
2018-12-27T05:57:38.486Z,0
2018-12-27T05:58:38.480Z,0
2018-12-27T05:59:38.458Z,0
2018-12-27T06:00:38.450Z,0
2018-12-27T06:01:38.446Z,0
2018-12-27T06:02:38.428Z,0
2018-12-27T06:03:38.425Z,0
2018-12-27T06:04:41.157Z,0
2018-12-27T06:05:38.393Z,0
2018-12-27T06:06:38.379Z,0
2018-12-27T06:07:38.370Z,0
2018-12-27T06:08:38.440Z,0
2018-12-27T06:09:38.345Z,0
2018-12-27T06:10:38.339Z,0
2018-12-27T06:11:38.324Z,0
2018-12-27T06:12:38.308Z,0
2018-12-27T06:13:38.302Z,0
2018-12-27T06:14:38.283Z,0
2018-12-27T06:15:38.273Z,0
2018-12-27T06:16:38.263Z,0
2018-12-27T06:17:38.251Z,0
2018-12-27T06:18:38.237Z,0
2018-12-27T06:19:38.225Z,0
2018-12-27T06:20:38.214Z,0
2018-12-27T06:21:38.207Z,0
2018-12-27T06:22:38.217Z,0
2018-12-27T06:23:38.186Z,0
2018-12-27T06:24:38.168Z,0
2018-12-27T06:25:38.181Z,0
2018-12-27T06:26:38.145Z,0
2018-12-27T06:27:38.136Z,0
2018-12-27T06:28:38.121Z,0
2018-12-27T06:29:38.113Z,0
2018-12-27T06:30:38.096Z,0
2018-12-27T06:31:38.087Z,0
2018-12-27T06:32:38.073Z,0
2018-12-27T06:33:38.064Z,0
2018-12-27T06:34:43.799Z,0
2018-12-27T06:35:38.052Z,0
2018-12-27T06:36:38.031Z,0
2018-12-27T06:37:38.022Z,4
2018-12-27T06:38:38.004Z,4
2018-12-27T06:39:37.992Z,4
2018-12-27T06:40:37.984Z,4
2018-12-27T06:41:37.972Z,4
2018-12-27T06:42:37.957Z,8
2018-12-27T06:43:37.943Z,4
2018-12-27T06:44:37.932Z,8
2018-12-27T06:45:37.971Z,8
2018-12-27T06:46:37.915Z,8
2018-12-27T06:47:37.902Z,8
2018-12-27T06:48:37.886Z,12
2018-12-27T06:49:37.872Z,16
2018-12-27T06:50:37.860Z,20
2018-12-27T06:51:37.846Z,20
2018-12-27T06:52:37.834Z,24
2018-12-27T06:53:37.892Z,28
2018-12-27T06:54:37.815Z,36
2018-12-27T06:55:37.795Z,40
2018-12-27T06:56:37.547Z,44
2018-12-27T06:57:37.777Z,52
2018-12-27T06:58:44.788Z,56
2018-12-27T06:59:37.790Z,60
2018-12-27T07:00:37.742Z,72
2018-12-27T07:01:37.723Z,80
2018-12-27T07:02:37.713Z,92
2018-12-27T07:03:37.701Z,96
2018-12-27T07:04:37.684Z,108
2018-12-27T07:05:37.673Z,108
2018-12-27T07:06:37.665Z,100
2018-12-27T07:07:37.654Z,108
2018-12-27T07:08:37.644Z,120
2018-12-27T07:09:37.623Z,124
2018-12-27T07:10:37.616Z,140
2018-12-27T07:11:37.599Z,144
2018-12-27T07:12:37.587Z,172
2018-12-27T07:13:37.572Z,184
2018-12-27T07:14:37.561Z,184
2018-12-27T07:15:37.556Z,184
2018-12-27T07:16:37.533Z,224
2018-12-27T07:17:37.524Z,236
2018-12-27T07:18:37.514Z,236
2018-12-27T07:19:37.581Z,276
2018-12-27T07:20:37.488Z,300
2018-12-27T07:21:37.479Z,320
2018-12-27T07:22:37.513Z,328
2018-12-27T07:23:37.444Z,332
2018-12-27T07:24:37.437Z,312
2018-12-27T07:25:37.425Z,356
2018-12-27T07:26:37.404Z,360
2018-12-27T07:27:37.468Z,352
2018-12-27T07:28:37.382Z,376
2018-12-27T07:29:37.368Z,428
2018-12-27T07:30:37.357Z,460
2018-12-27T07:31:37.342Z,456
2018-12-27T07:32:37.342Z,488
2018-12-27T07:33:37.350Z,496
2018-12-27T07:34:37.307Z,568
2018-12-27T07:35:37.292Z,572
2018-12-27T07:36:37.281Z,548
2018-12-27T07:37:37.268Z,544
2018-12-27T07:38:37.256Z,564
2018-12-27T07:39:37.240Z,560
2018-12-27T07:40:37.230Z,564
2018-12-27T07:41:37.216Z,572
2018-12-27T07:42:37.204Z,548
2018-12-27T07:43:37.194Z,556
2018-12-27T07:44:37.180Z,612
2018-12-27T07:45:37.166Z,596
2018-12-27T07:46:37.210Z,600
2018-12-27T07:47:37.143Z,656
2018-12-27T07:48:37.127Z,768
2018-12-27T07:49:37.120Z,812
2018-12-27T07:50:37.110Z,828
2018-12-27T07:51:37.089Z,876
2018-12-27T07:52:37.078Z,944
2018-12-27T07:53:37.065Z,1012
2018-12-27T07:54:37.053Z,1140
2018-12-27T07:55:37.106Z,1464
2018-12-27T07:56:37.031Z,1916
2018-12-27T07:57:37.015Z,2112
2018-12-27T07:58:37.000Z,2084
2018-12-27T07:59:36.988Z,2088
2018-12-27T08:00:36.981Z,2192
2018-12-27T08:01:36.968Z,2388
2018-12-27T08:02:36.963Z,2584
2018-12-27T08:03:36.943Z,2668
2018-12-27T08:04:36.931Z,2552
2018-12-27T08:05:36.920Z,2388
2018-12-27T08:06:36.914Z,2348
2018-12-27T08:07:36.898Z,2376
2018-12-27T08:08:36.887Z,2496
2018-12-27T08:09:38.362Z,2728
2018-12-27T08:10:36.860Z,3000
2018-12-27T08:11:36.846Z,3268
2018-12-27T08:12:36.844Z,3572
2018-12-27T08:13:36.817Z,3792
2018-12-27T08:14:36.808Z,3852
2018-12-27T08:15:36.795Z,3916
2018-12-27T08:16:36.782Z,4060
2018-12-27T08:17:36.770Z,4224
2018-12-27T08:18:36.757Z,4392
2018-12-27T08:19:36.747Z,4424
2018-12-27T08:20:36.740Z,4320
2018-12-27T08:21:36.795Z,4160
2018-12-27T08:22:36.713Z,3688
2018-12-27T08:23:36.702Z,3288
2018-12-27T08:24:36.685Z,3212
2018-12-27T08:25:36.736Z,3268
2018-12-27T08:26:36.682Z,3192
2018-12-27T08:27:36.909Z,2972
2018-12-27T08:28:36.637Z,3004
2018-12-27T08:29:36.629Z,3296
2018-12-27T08:30:36.617Z,3112
2018-12-27T08:31:36.608Z,2772
2018-12-27T08:32:36.589Z,2724
2018-12-27T08:33:36.583Z,2748
2018-12-27T08:34:37.186Z,2488
2018-12-27T08:35:36.556Z,2116
2018-12-27T08:36:36.551Z,2004
2018-12-27T08:37:36.539Z,1820
2018-12-27T08:38:36.522Z,1536
2018-12-27T08:39:36.511Z,1416
2018-12-27T08:40:36.495Z,1340
2018-12-27T08:41:36.484Z,1400
2018-12-27T08:42:36.474Z,1780
2018-12-27T08:43:36.465Z,2008
2018-12-27T08:44:36.449Z,2016
2018-12-27T08:45:36.437Z,1992
2018-12-27T08:46:36.434Z,1904
2018-12-27T08:47:36.417Z,1896
2018-12-27T08:48:36.402Z,2040
2018-12-27T08:49:36.393Z,1740
2018-12-27T08:50:36.374Z,1988
2018-12-27T08:51:36.366Z,1980
2018-12-27T08:52:36.356Z,1864
2018-12-27T08:53:36.340Z,1980
2018-12-27T08:54:36.331Z,1936
2018-12-27T08:55:36.318Z,2016
2018-12-27T08:56:36.307Z,2336
2018-12-27T08:57:36.290Z,2344
2018-12-27T08:58:36.286Z,2220
2018-12-27T08:59:36.276Z,2128
2018-12-27T09:00:36.019Z,2084
2018-12-27T09:01:36.254Z,1912
2018-12-27T09:02:35.999Z,1936
2018-12-27T09:03:36.227Z,1904
2018-12-27T09:04:36.215Z,2252
2018-12-27T09:05:36.200Z,2384
2018-12-27T09:06:36.190Z,2404
2018-12-27T09:07:36.175Z,2052
2018-12-27T09:08:36.462Z,1988
2018-12-27T09:09:36.154Z,2060
2018-12-27T09:10:36.143Z,2044
2018-12-27T09:11:36.126Z,2040
2018-12-27T09:12:36.241Z,2028
2018-12-27T09:13:36.104Z,1972
2018-12-27T09:14:36.096Z,2096
2018-12-27T09:15:36.081Z,1944
2018-12-27T09:16:36.068Z,1920
2018-12-27T09:17:36.058Z,2040
2018-12-27T09:18:36.048Z,2052
2018-12-27T09:19:36.042Z,2024
2018-12-27T09:20:36.022Z,2176
2018-12-27T09:21:36.009Z,2292
2018-12-27T09:22:36.004Z,2044
2018-12-27T09:23:35.990Z,2000
2018-12-27T09:24:36.041Z,1944
2018-12-27T09:25:35.966Z,1960
2018-12-27T09:26:35.953Z,1992
2018-12-27T09:27:35.937Z,1912
2018-12-27T09:28:35.925Z,1876
2018-12-27T09:29:36.168Z,1816
2018-12-27T09:30:35.903Z,1740
2018-12-27T09:31:35.889Z,1944
2018-12-27T09:32:35.881Z,1952
2018-12-27T09:33:35.881Z,1864
2018-12-27T09:34:35.859Z,1764
2018-12-27T09:35:35.846Z,1820
2018-12-27T09:36:35.834Z,1848
2018-12-27T09:37:35.824Z,1684
2018-12-27T09:38:35.808Z,1740
2018-12-27T09:39:35.801Z,1820
2018-12-27T09:40:35.793Z,1868
2018-12-27T09:41:35.784Z,2072
2018-12-27T09:42:35.771Z,1956
2018-12-27T09:43:35.788Z,1856
2018-12-27T09:44:35.742Z,1836
2018-12-27T09:45:35.728Z,1748
2018-12-27T09:46:35.727Z,1760
2018-12-27T09:47:35.704Z,1776
2018-12-27T09:48:35.697Z,1792
2018-12-27T09:49:35.679Z,1912
2018-12-27T09:50:35.665Z,2092
2018-12-27T09:51:36.390Z,2112
2018-12-27T09:52:35.660Z,2016
2018-12-27T09:53:35.635Z,2088
2018-12-27T09:54:35.627Z,2140
2018-12-27T09:55:35.609Z,2256
2018-12-27T09:56:35.595Z,2164
2018-12-27T09:57:35.584Z,2328
2018-12-27T09:58:35.573Z,2140
2018-12-27T09:59:35.585Z,2056
2018-12-27T10:00:35.579Z,1828
2018-12-27T10:01:35.543Z,1804
2018-12-27T10:02:35.540Z,1972
2018-12-27T10:03:35.515Z,2040
2018-12-27T10:04:35.513Z,1896
2018-12-27T10:05:41.123Z,1928
2018-12-27T10:06:35.482Z,1908
2018-12-27T10:07:35.468Z,1856
2018-12-27T10:08:35.457Z,1760
2018-12-27T10:09:35.442Z,1872
2018-12-27T10:10:35.433Z,1936
2018-12-27T10:11:35.423Z,1848
2018-12-27T10:12:35.402Z,1772
2018-12-27T10:13:35.398Z,1756
2018-12-27T10:14:35.384Z,1840
2018-12-27T10:15:37.175Z,1868
2018-12-27T10:16:35.370Z,1756
2018-12-27T10:17:35.353Z,1684
2018-12-27T10:18:35.343Z,1744
2018-12-27T10:19:35.325Z,1700
2018-12-27T10:20:35.312Z,1900
2018-12-27T10:21:35.301Z,2064
2018-12-27T10:22:35.517Z,2156
2018-12-27T10:23:35.277Z,2232
2018-12-27T10:24:35.268Z,2148
2018-12-27T10:25:35.252Z,2028
2018-12-27T10:26:35.250Z,2060
2018-12-27T10:27:35.265Z,2332
2018-12-27T10:28:35.218Z,2372
2018-12-27T10:29:35.211Z,2300
2018-12-27T10:30:35.194Z,2628
2018-12-27T10:31:35.202Z,2652
2018-12-27T10:32:35.170Z,2660
2018-12-27T10:33:35.159Z,2620
2018-12-27T10:34:35.149Z,2552
2018-12-27T10:35:41.030Z,2768
2018-12-27T10:36:35.120Z,2808
2018-12-27T10:37:35.112Z,2800
2018-12-27T10:38:35.103Z,3044
2018-12-27T10:39:35.090Z,3272
2018-12-27T10:40:35.079Z,3528
2018-12-27T10:41:35.061Z,3324
2018-12-27T10:42:35.056Z,3176
2018-12-27T10:43:35.047Z,3092
2018-12-27T10:44:35.033Z,2952
2018-12-27T10:45:35.013Z,3004
2018-12-27T10:46:35.006Z,2972
2018-12-27T10:47:34.992Z,2804
2018-12-27T10:48:34.980Z,2836
2018-12-27T10:49:34.969Z,2680
2018-12-27T10:50:34.959Z,2796
2018-12-27T10:51:34.948Z,2920
2018-12-27T10:52:34.937Z,2840
2018-12-27T10:53:35.003Z,2564
2018-12-27T10:54:34.916Z,2536
2018-12-27T10:55:34.916Z,2548
2018-12-27T10:56:34.890Z,2496
2018-12-27T10:57:37.200Z,2536
2018-12-27T10:58:34.863Z,2488
2018-12-27T10:59:34.866Z,2400
2018-12-27T11:00:34.840Z,2312
2018-12-27T11:01:34.828Z,2240
2018-12-27T11:02:34.820Z,2276
2018-12-27T11:03:37.845Z,2304
2018-12-27T11:04:34.798Z,2436
2018-12-27T11:05:34.787Z,2288
2018-12-27T11:06:34.772Z,2304
2018-12-27T11:07:34.760Z,2300
2018-12-27T11:08:34.751Z,2244
2018-12-27T11:09:34.740Z,2268
2018-12-27T11:10:34.727Z,2224
2018-12-27T11:11:34.715Z,2104
2018-12-27T11:12:34.717Z,2288
2018-12-27T11:13:34.712Z,2492
2018-12-27T11:14:34.683Z,2468
2018-12-27T11:15:34.702Z,2440
2018-12-27T11:16:34.659Z,2584
2018-12-27T11:17:34.657Z,2604
2018-12-27T11:18:35.666Z,2400
2018-12-27T11:19:34.621Z,2472
2018-12-27T11:20:34.608Z,2512
2018-12-27T11:21:34.600Z,2500
2018-12-27T11:22:34.589Z,2480
2018-12-27T11:23:34.580Z,2444
2018-12-27T11:24:34.569Z,2480
2018-12-27T11:25:34.552Z,2440
2018-12-27T11:26:34.548Z,2240
2018-12-27T11:27:34.527Z,2380
2018-12-27T11:28:34.518Z,2504
2018-12-27T11:29:34.507Z,2636
2018-12-27T11:30:34.497Z,2836
2018-12-27T11:31:34.486Z,2596
2018-12-27T11:32:34.477Z,2520
2018-12-27T11:33:34.464Z,2720
2018-12-27T11:34:34.456Z,2548
2018-12-27T11:35:34.440Z,2312
2018-12-27T11:36:34.431Z,2372
2018-12-27T11:37:34.431Z,2596
2018-12-27T11:38:34.408Z,2548
2018-12-27T11:39:34.396Z,2688
2018-12-27T11:40:34.380Z,2948
2018-12-27T11:41:34.372Z,2644
2018-12-27T11:42:34.354Z,2660
2018-12-27T11:43:34.349Z,2536
2018-12-27T11:44:34.333Z,2660
2018-12-27T11:45:34.325Z,2832
2018-12-27T11:46:34.321Z,3076
2018-12-27T11:47:34.302Z,2876
2018-12-27T11:48:34.299Z,3352
2018-12-27T11:49:34.279Z,3260
2018-12-27T11:50:34.268Z,3588
2018-12-27T11:51:34.255Z,3224
2018-12-27T11:52:34.248Z,3304
2018-12-27T11:53:34.241Z,3344
2018-12-27T11:54:34.231Z,3636
2018-12-27T11:55:34.210Z,3824
2018-12-27T11:56:34.198Z,3236
2018-12-27T11:57:34.200Z,3124
2018-12-27T11:58:34.257Z,3580
2018-12-27T11:59:34.169Z,3304
2018-12-27T12:00:34.154Z,3284
2018-12-27T12:01:34.144Z,3328
2018-12-27T12:02:38.330Z,3140
2018-12-27T12:03:34.123Z,2856
2018-12-27T12:04:34.112Z,2816
2018-12-27T12:05:34.168Z,2384
2018-12-27T12:06:34.090Z,2488
2018-12-27T12:07:34.086Z,2712
2018-12-27T12:08:34.068Z,2820
2018-12-27T12:09:34.053Z,2468
2018-12-27T12:10:34.041Z,2456
2018-12-27T12:11:34.049Z,2380
2018-12-27T12:12:34.025Z,2192
2018-12-27T12:13:34.009Z,2208
2018-12-27T12:14:34.004Z,2400
2018-12-27T12:15:33.991Z,2504
2018-12-27T12:16:33.975Z,2296
2018-12-27T12:17:33.964Z,2200
2018-12-27T12:18:33.954Z,2164
2018-12-27T12:19:33.942Z,2148
2018-12-27T12:20:33.934Z,2108
2018-12-27T12:21:33.922Z,2396
2018-12-27T12:22:33.907Z,2240
2018-12-27T12:23:33.910Z,2192
2018-12-27T12:24:33.899Z,2040
2018-12-27T12:25:33.881Z,2096
2018-12-27T12:26:33.866Z,1904
2018-12-27T12:27:33.856Z,1884
2018-12-27T12:28:33.850Z,1796
2018-12-27T12:29:33.838Z,1672
2018-12-27T12:30:33.823Z,1668
2018-12-27T12:31:33.815Z,1972
2018-12-27T12:32:33.804Z,1976
2018-12-27T12:33:33.788Z,1832
2018-12-27T12:34:33.777Z,1928
2018-12-27T12:35:33.769Z,2084
2018-12-27T12:36:33.760Z,1920
2018-12-27T12:37:33.747Z,1912
2018-12-27T12:38:33.737Z,2112
2018-12-27T12:39:33.724Z,1872
2018-12-27T12:40:33.717Z,1648
2018-12-27T12:41:33.464Z,1740
2018-12-27T12:42:40.185Z,1852
2018-12-27T12:43:33.441Z,1864
2018-12-27T12:44:33.675Z,2000
2018-12-27T12:45:33.667Z,1892
2018-12-27T12:46:33.653Z,1844
2018-12-27T12:47:33.642Z,1688
2018-12-27T12:48:33.626Z,1568
2018-12-27T12:49:33.377Z,1604
2018-12-27T12:50:33.602Z,1592
2018-12-27T12:51:33.608Z,1560
2018-12-27T12:52:33.580Z,1536
2018-12-27T12:53:34.545Z,1700
2018-12-27T12:54:33.560Z,1684
2018-12-27T12:55:33.558Z,1700
2018-12-27T12:56:33.543Z,1632
2018-12-27T12:57:33.531Z,1732
2018-12-27T12:58:33.517Z,1748
2018-12-27T12:59:33.506Z,1736
2018-12-27T13:00:33.496Z,1664
2018-12-27T13:01:33.484Z,1860
2018-12-27T13:02:33.471Z,1876
2018-12-27T13:03:33.467Z,1820
2018-12-27T13:04:33.448Z,1904
2018-12-27T13:05:33.439Z,1804
2018-12-27T13:06:33.433Z,1796
2018-12-27T13:07:33.416Z,1892
2018-12-27T13:08:33.411Z,1920
2018-12-27T13:09:33.392Z,1852
2018-12-27T13:10:33.383Z,1876
2018-12-27T13:11:33.372Z,1664
2018-12-27T13:12:33.361Z,1468
2018-12-27T13:13:33.353Z,1536
2018-12-27T13:14:33.339Z,1396
2018-12-27T13:15:33.328Z,1340
2018-12-27T13:16:33.315Z,1368
2018-12-27T13:17:33.305Z,1368
2018-12-27T13:18:33.308Z,1456
2018-12-27T13:19:33.281Z,1344
2018-12-27T13:20:33.279Z,1316
2018-12-27T13:21:33.259Z,1504
2018-12-27T13:22:33.248Z,1400
2018-12-27T13:23:33.002Z,1408
2018-12-27T13:24:33.231Z,1484
2018-12-27T13:25:33.217Z,1680
2018-12-27T13:26:33.210Z,1616
2018-12-27T13:27:33.191Z,1564
2018-12-27T13:28:33.304Z,1456
2018-12-27T13:29:33.172Z,1492
2018-12-27T13:30:33.162Z,1512
2018-12-27T13:31:33.146Z,1448
2018-12-27T13:32:33.159Z,1608
2018-12-27T13:33:33.133Z,1636
2018-12-27T13:34:33.713Z,1800
2018-12-27T13:35:33.111Z,1572
2018-12-27T13:36:33.093Z,1700
2018-12-27T13:37:33.083Z,1548
2018-12-27T13:38:33.072Z,1604
2018-12-27T13:39:33.058Z,1564
2018-12-27T13:40:33.048Z,1480
2018-12-27T13:41:33.038Z,1408
2018-12-27T13:42:33.023Z,1272
2018-12-27T13:43:33.024Z,1088
2018-12-27T13:44:33.002Z,1220
2018-12-27T13:45:32.993Z,1152
2018-12-27T13:46:32.744Z,1104
2018-12-27T13:47:32.969Z,1040
2018-12-27T13:48:32.962Z,956
2018-12-27T13:49:32.947Z,940
2018-12-27T13:50:32.937Z,844
2018-12-27T13:51:32.936Z,864
2018-12-27T13:52:32.932Z,828
2018-12-27T13:53:32.901Z,824
2018-12-27T13:54:32.897Z,768
2018-12-27T13:55:32.882Z,708
2018-12-27T13:56:32.869Z,656
2018-12-27T13:57:32.859Z,540
2018-12-27T13:58:32.850Z,608
2018-12-27T13:59:32.835Z,564
2018-12-27T14:00:32.827Z,528
2018-12-27T14:01:32.820Z,484
2018-12-27T14:02:32.807Z,444